sensor_id;sensor_type;location;lat;lon;timestamp;pressure;altitude;pressure_sealevel;temperature;humidity
76994;BME280;66749;47.406;18.822;2023-06-22T00:00:02;100588.34;;;22.41;87.57
76994;BME280;66749;47.406;18.822;2023-06-22T00:00:40;100593.50;;;22.43;86.87
76994;BME280;66749;47.406;18.822;2023-06-22T00:01:14;100595.50;;;22.41;86.85
76994;BME280;66749;47.406;18.822;2023-06-22T00:01:46;100595.50;;;22.41;87.76
76994;BME280;66749;47.406;18.822;2023-06-22T00:02:18;100594.50;;;22.42;87.30
76994;BME280;66749;47.406;18.822;2023-06-22T00:02:50;100609.31;;;22.45;87.43
76994;BME280;66749;47.406;18.822;2023-06-22T00:03:23;100597.00;;;22.43;87.58
76994;BME280;66749;47.406;18.822;2023-06-22T00:03:56;100610.63;;;22.40;88.04
76994;BME280;66749;47.406;18.822;2023-06-22T00:04:28;100614.09;;;22.41;88.43
76994;BME280;66749;47.406;18.822;2023-06-22T00:04:59;100609.47;;;22.43;88.03
76994;BME280;66749;47.406;18.822;2023-06-22T00:05:31;100616.78;;;22.41;87.99
76994;BME280;66749;47.406;18.822;2023-06-22T00:06:03;100622.91;;;22.41;87.43
76994;BME280;66749;47.406;18.822;2023-06-22T00:06:35;100622.25;;;22.39;86.88
76994;BME280;66749;47.406;18.822;2023-06-22T00:07:07;100630.38;;;22.38;87.31
76994;BME280;66749;47.406;18.822;2023-06-22T00:07:40;100637.22;;;22.40;86.33
76994;BME280;66749;47.406;18.822;2023-06-22T00:08:12;100627.72;;;22.38;86.37
76994;BME280;66749;47.406;18.822;2023-06-22T00:08:44;100633.19;;;22.36;87.76
76994;BME280;66749;47.406;18.822;2023-06-22T00:09:16;100632.34;;;22.36;87.26
76994;BME280;66749;47.406;18.822;2023-06-22T00:09:48;100632.34;;;22.36;86.99
76994;BME280;66749;47.406;18.822;2023-06-22T00:10:19;100630.69;;;22.35;87.21
76994;BME280;66749;47.406;18.822;2023-06-22T00:10:51;100630.69;;;22.35;86.89
76994;BME280;66749;47.406;18.822;2023-06-22T00:11:23;100624.69;;;22.33;87.26
76994;BME280;66749;47.406;18.822;2023-06-22T00:11:55;100625.38;;;22.35;87.00
76994;BME280;66749;47.406;18.822;2023-06-22T00:12:27;100620.22;;;22.33;87.11
76994;BME280;66749;47.406;18.822;2023-06-22T00:12:59;100621.22;;;22.32;87.83
76994;BME280;66749;47.406;18.822;2023-06-22T00:13:31;100612.03;;;22.27;88.22
76994;BME280;66749;47.406;18.822;2023-06-22T00:14:04;100610.19;;;22.27;87.99
76994;BME280;66749;47.406;18.822;2023-06-22T00:14:36;100614.69;;;22.27;88.87
76994;BME280;66749;47.406;18.822;2023-06-22T00:15:08;100611.34;;;22.25;89.11
76994;BME280;66749;47.406;18.822;2023-06-22T00:15:41;100616.81;;;22.23;88.85
76994;BME280;66749;47.406;18.822;2023-06-22T00:16:13;100616.28;;;22.20;89.00
76994;BME280;66749;47.406;18.822;2023-06-22T00:16:45;100617.44;;;22.17;89.47
76994;BME280;66749;47.406;18.822;2023-06-22T00:17:20;100620.63;;;22.21;89.22
76994;BME280;66749;47.406;18.822;2023-06-22T00:17:52;100618.50;;;22.24;88.44
76994;BME280;66749;47.406;18.822;2023-06-22T00:18:24;100617.66;;;22.24;88.82
76994;BME280;66749;47.406;18.822;2023-06-22T00:19:00;100610.69;;;22.23;88.90
76994;BME280;66749;47.406;18.822;2023-06-22T00:19:33;100608.69;;;22.25;88.24
76994;BME280;66749;47.406;18.822;2023-06-22T00:20:07;100607.84;;;22.24;88.43
76994;BME280;66749;47.406;18.822;2023-06-22T00:20:40;100609.53;;;22.25;88.36
76994;BME280;66749;47.406;18.822;2023-06-22T00:21:12;100602.38;;;22.26;88.11
76994;BME280;66749;47.406;18.822;2023-06-22T00:21:44;100599.72;;;22.26;88.53
76994;BME280;66749;47.406;18.822;2023-06-22T00:22:19;100603.22;;;22.26;87.76
76994;BME280;66749;47.406;18.822;2023-06-22T00:23:00;100603.03;;;22.28;87.49
76994;BME280;66749;47.406;18.822;2023-06-22T00:23:32;100598.72;;;22.27;87.31
76994;BME280;66749;47.406;18.822;2023-06-22T00:24:06;100601.53;;;22.25;88.08
76994;BME280;66749;47.406;18.822;2023-06-22T00:24:38;100602.00;;;22.21;87.98
76994;BME280;66749;47.406;18.822;2023-06-22T00:25:11;100589.69;;;22.20;88.41
76994;BME280;66749;47.406;18.822;2023-06-22T00:25:43;100601.50;;;22.17;89.10
76994;BME280;66749;47.406;18.822;2023-06-22T00:26:15;100601.94;;;22.12;89.64
76994;BME280;66749;47.406;18.822;2023-06-22T00:26:48;100595.81;;;22.12;88.92
76994;BME280;66749;47.406;18.822;2023-06-22T00:27:20;100594.97;;;22.11;88.60
76994;BME280;66749;47.406;18.822;2023-06-22T00:27:52;100601.28;;;22.10;88.35
76994;BME280;66749;47.406;18.822;2023-06-22T00:28:24;100596.13;;;22.09;88.64
76994;BME280;66749;47.406;18.822;2023-06-22T00:28:56;100601.94;;;22.12;88.50
76994;BME280;66749;47.406;18.822;2023-06-22T00:29:27;100599.81;;;22.16;88.38
76994;BME280;66749;47.406;18.822;2023-06-22T00:29:59;100603.47;;;22.15;89.35
76994;BME280;66749;47.406;18.822;2023-06-22T00:30:31;100607.97;;;22.14;89.14
76994;BME280;66749;47.406;18.822;2023-06-22T00:31:03;100605.44;;;22.13;89.58
76994;BME280;66749;47.406;18.822;2023-06-22T00:31:35;100609.91;;;22.12;89.39
76994;BME280;66749;47.406;18.822;2023-06-22T00:32:07;100608.59;;;22.08;89.23
76994;BME280;66749;47.406;18.822;2023-06-22T00:32:39;100611.66;;;22.04;89.11
76994;BME280;66749;47.406;18.822;2023-06-22T00:33:11;100614.81;;;21.99;89.33
76994;BME280;66749;47.406;18.822;2023-06-22T00:33:43;100610.59;;;21.97;89.13
76994;BME280;66749;47.406;18.822;2023-06-22T00:34:15;100620.41;;;21.96;88.71
76994;BME280;66749;47.406;18.822;2023-06-22T00:34:47;100620.72;;;21.93;89.45
76994;BME280;66749;47.406;18.822;2023-06-22T00:35:19;100620.19;;;21.89;88.59
76994;BME280;66749;47.406;18.822;2023-06-22T00:35:51;100619.66;;;21.86;88.66
76994;BME280;66749;47.406;18.822;2023-06-22T00:36:24;100618.13;;;21.83;88.82
76994;BME280;66749;47.406;18.822;2023-06-22T00:36:56;100618.84;;;21.85;88.13
76994;BME280;66749;47.406;18.822;2023-06-22T00:37:28;100608.06;;;21.87;87.51
76994;BME280;66749;47.406;18.822;2023-06-22T00:38:01;100608.72;;;21.89;88.07
76994;BME280;66749;47.406;18.822;2023-06-22T00:38:34;100604.25;;;21.89;88.11
76994;BME280;66749;47.406;18.822;2023-06-22T00:39:06;100604.25;;;21.89;87.85
76994;BME280;66749;47.406;18.822;2023-06-22T00:39:39;100600.06;;;21.87;87.85
76994;BME280;66749;47.406;18.822;2023-06-22T00:40:11;100603.56;;;21.87;88.76
76994;BME280;66749;47.406;18.822;2023-06-22T00:40:43;100602.91;;;21.85;88.85
76994;BME280;66749;47.406;18.822;2023-06-22T00:41:15;100607.38;;;21.85;89.51
76994;BME280;66749;47.406;18.822;2023-06-22T00:41:47;100603.56;;;21.87;89.59
76994;BME280;66749;47.406;18.822;2023-06-22T00:42:19;100607.88;;;21.88;89.81
76994;BME280;66749;47.406;18.822;2023-06-22T00:42:51;100607.88;;;21.88;89.57
76994;BME280;66749;47.406;18.822;2023-06-22T00:43:23;100607.88;;;21.88;89.73
76994;BME280;66749;47.406;18.822;2023-06-22T00:43:55;100612.53;;;21.86;89.78
76994;BME280;66749;47.406;18.822;2023-06-22T00:44:26;100614.19;;;21.87;89.94
76994;BME280;66749;47.406;18.822;2023-06-22T00:44:58;100618.69;;;21.87;89.67
76994;BME280;66749;47.406;18.822;2023-06-22T00:45:30;100610.88;;;21.85;89.68
76994;BME280;66749;47.406;18.822;2023-06-22T00:46:02;100607.06;;;21.88;89.48
76994;BME280;66749;47.406;18.822;2023-06-22T00:46:34;100608.72;;;21.89;89.28
76994;BME280;66749;47.406;18.822;2023-06-22T00:47:06;100613.75;;;21.92;88.38
76994;BME280;66749;47.406;18.822;2023-06-22T00:47:38;100607.59;;;21.92;88.67
76994;BME280;66749;47.406;18.822;2023-06-22T00:48:12;100605.78;;;21.92;88.49
76994;BME280;66749;47.406;18.822;2023-06-22T00:48:44;100603.13;;;21.92;88.81
76994;BME280;66749;47.406;18.822;2023-06-22T00:49:16;100603.25;;;21.91;88.72
76994;BME280;66749;47.406;18.822;2023-06-22T00:49:49;100598.63;;;21.93;88.79
76994;BME280;66749;47.406;18.822;2023-06-22T00:50:26;100601.13;;;21.94;88.61
76994;BME280;66749;47.406;18.822;2023-06-22T00:50:59;100605.63;;;21.94;88.77
76994;BME280;66749;47.406;18.822;2023-06-22T00:51:31;100609.94;;;21.95;88.37
76994;BME280;66749;47.406;18.822;2023-06-22T00:52:03;100604.94;;;21.92;88.75
76994;BME280;66749;47.406;18.822;2023-06-22T00:52:35;100605.91;;;21.91;88.86
76994;BME280;66749;47.406;18.822;2023-06-22T00:53:08;100605.91;;;21.91;88.43
76994;BME280;66749;47.406;18.822;2023-06-22T00:53:41;100606.59;;;21.93;88.15
76994;BME280;66749;47.406;18.822;2023-06-22T00:54:14;100606.59;;;21.93;88.35
76994;BME280;66749;47.406;18.822;2023-06-22T00:54:50;100607.88;;;21.88;88.43
76994;BME280;66749;47.406;18.822;2023-06-22T00:55:23;100609.72;;;21.88;89.05
76994;BME280;66749;47.406;18.822;2023-06-22T00:55:55;100607.72;;;21.90;89.23
76994;BME280;66749;47.406;18.822;2023-06-22T00:56:27;100610.38;;;21.90;89.46
76994;BME280;66749;47.406;18.822;2023-06-22T00:57:02;100614.03;;;21.89;89.28
76994;BME280;66749;47.406;18.822;2023-06-22T00:57:34;100611.53;;;21.87;89.74
76994;BME280;66749;47.406;18.822;2023-06-22T00:58:09;100603.56;;;21.87;89.06
76994;BME280;66749;47.406;18.822;2023-06-22T00:58:42;100605.06;;;21.90;89.50
76994;BME280;66749;47.406;18.822;2023-06-22T00:59:14;100608.56;;;21.91;89.38
76994;BME280;66749;47.406;18.822;2023-06-22T00:59:49;100605.22;;;21.88;89.30
76994;BME280;66749;47.406;18.822;2023-06-22T01:00:23;100606.72;;;21.91;89.60
76994;BME280;66749;47.406;18.822;2023-06-22T01:00:56;100603.41;;;21.89;89.37
76994;BME280;66749;47.406;18.822;2023-06-22T01:01:28;100604.41;;;21.88;89.82
76994;BME280;66749;47.406;18.822;2023-06-22T01:02:00;100607.72;;;21.90;89.43
76994;BME280;66749;47.406;18.822;2023-06-22T01:02:32;100603.56;;;21.87;89.34
76994;BME280;66749;47.406;18.822;2023-06-22T01:03:04;100602.91;;;21.85;89.67
76994;BME280;66749;47.406;18.822;2023-06-22T01:03:40;100602.91;;;21.85;89.41
76994;BME280;66749;47.406;18.822;2023-06-22T01:04:12;100598.41;;;21.86;89.61
76994;BME280;66749;47.406;18.822;2023-06-22T01:04:44;100600.06;;;21.87;88.91
76994;BME280;66749;47.406;18.822;2023-06-22T01:05:18;100599.25;;;21.86;89.85
76994;BME280;66749;47.406;18.822;2023-06-22T01:05:50;100593.94;;;21.86;89.58
76994;BME280;66749;47.406;18.822;2023-06-22T01:06:29;100592.78;;;21.89;89.20
76994;BME280;66749;47.406;18.822;2023-06-22T01:08:57;100593.44;;;21.91;89.18
76994;BME280;66749;47.406;18.822;2023-06-22T01:09:37;100596.81;;;21.93;89.16
76994;BME280;66749;47.406;18.822;2023-06-22T01:11:20;100594.97;;;21.94;88.86
76994;BME280;66749;47.406;18.822;2023-06-22T01:12:00;100602.28;;;21.92;88.38
76994;BME280;66749;47.406;18.822;2023-06-22T01:12:40;100599.75;;;21.90;88.27
76994;BME280;66749;47.406;18.822;2023-06-22T01:14:46;100600.41;;;21.84;88.85
76994;BME280;66749;47.406;18.822;2023-06-22T01:15:36;100602.34;;;21.82;89.15
76994;BME280;66749;47.406;18.822;2023-06-22T01:16:16;100600.00;;;21.79;89.50
76994;BME280;66749;47.406;18.822;2023-06-22T01:16:51;100591.22;;;21.78;89.36
76994;BME280;66749;47.406;18.822;2023-06-22T01:17:26;100593.16;;;21.76;89.14
76994;BME280;66749;47.406;18.822;2023-06-22T01:17:59;100593.63;;;21.72;90.11
76994;BME280;66749;47.406;18.822;2023-06-22T01:18:36;100588.63;;;21.69;90.18
76994;BME280;66749;47.406;18.822;2023-06-22T01:19:49;100590.97;;;21.72;89.66
76994;BME280;66749;47.406;18.822;2023-06-22T01:20:25;100596.13;;;21.73;90.04
76994;BME280;66749;47.406;18.822;2023-06-22T01:21:00;100585.81;;;21.70;89.84
76994;BME280;66749;47.406;18.822;2023-06-22T01:21:34;100593.25;;;21.67;89.12
76994;BME280;66749;47.406;18.822;2023-06-22T01:22:06;100591.28;;;21.69;89.17
76994;BME280;66749;47.406;18.822;2023-06-22T01:24:22;100591.66;;;21.74;89.60
76994;BME280;66749;47.406;18.822;2023-06-22T01:25:08;100581.84;;;21.74;89.25
76994;BME280;66749;47.406;18.822;2023-06-22T01:25:46;100586.50;;;21.72;88.85
76994;BME280;66749;47.406;18.822;2023-06-22T01:26:28;100585.66;;;21.72;89.36
76994;BME280;66749;47.406;18.822;2023-06-22T01:28:54;100588.47;;;21.70;89.32
76994;BME280;66749;47.406;18.822;2023-06-22T01:29:27;100585.28;;;21.67;89.69
76994;BME280;66749;47.406;18.822;2023-06-22T01:30:01;100585.44;;;21.65;89.88
76994;BME280;66749;47.406;18.822;2023-06-22T01:30:35;100589.25;;;21.63;90.06
76994;BME280;66749;47.406;18.822;2023-06-22T01:31:10;100581.13;;;21.64;89.56
76994;BME280;66749;47.406;18.822;2023-06-22T01:31:45;100589.53;;;21.59;89.59
76994;BME280;66749;47.406;18.822;2023-06-22T01:32:18;100581.88;;;21.56;90.02
76994;BME280;66749;47.406;18.822;2023-06-22T01:32:53;100589.19;;;21.54;89.62
76994;BME280;66749;47.406;18.822;2023-06-22T01:33:25;100579.38;;;21.55;89.56
76994;BME280;66749;47.406;18.822;2023-06-22T01:34:00;100594.16;;;21.57;90.00
76994;BME280;66749;47.406;18.822;2023-06-22T01:34:33;100582.41;;;21.60;89.65
76994;BME280;66749;47.406;18.822;2023-06-22T01:35:07;100586.59;;;21.63;90.00
76994;BME280;66749;47.406;18.822;2023-06-22T01:35:40;100584.78;;;21.63;89.45
76994;BME280;66749;47.406;18.822;2023-06-22T01:36:14;100584.94;;;21.62;89.24
76994;BME280;66749;47.406;18.822;2023-06-22T01:36:46;100584.06;;;21.61;89.22
76994;BME280;66749;47.406;18.822;2023-06-22T01:37:18;100576.81;;;21.63;89.74
76994;BME280;66749;47.406;18.822;2023-06-22T01:37:50;100574.97;;;21.64;89.59
76994;BME280;66749;47.406;18.822;2023-06-22T01:38:23;100575.13;;;21.62;89.59
76994;BME280;66749;47.406;18.822;2023-06-22T01:38:57;100573.44;;;21.61;88.61
76994;BME280;66749;47.406;18.822;2023-06-22T01:39:30;100574.59;;;21.58;88.78
76994;BME280;66749;47.406;18.822;2023-06-22T01:40:05;100571.78;;;21.60;88.71
76994;BME280;66749;47.406;18.822;2023-06-22T01:40:37;100569.28;;;21.58;88.95
76994;BME280;66749;47.406;18.822;2023-06-22T01:41:11;100575.97;;;21.63;89.38
76994;BME280;66749;47.406;18.822;2023-06-22T01:41:43;100573.97;;;21.65;89.06
76994;BME280;66749;47.406;18.822;2023-06-22T01:42:16;100573.97;;;21.65;88.95
76994;BME280;66749;47.406;18.822;2023-06-22T01:42:50;100574.81;;;21.65;88.97
76994;BME280;66749;47.406;18.822;2023-06-22T01:43:24;100582.94;;;21.64;89.15
76994;BME280;66749;47.406;18.822;2023-06-22T01:43:57;100579.28;;;21.65;89.44
76994;BME280;66749;47.406;18.822;2023-06-22T01:44:30;100576.47;;;21.66;88.85
76994;BME280;66749;47.406;18.822;2023-06-22T01:45:04;100582.63;;;21.67;89.22
76994;BME280;66749;47.406;18.822;2023-06-22T01:45:37;100584.44;;;21.66;88.99
76994;BME280;66749;47.406;18.822;2023-06-22T01:46:09;100583.63;;;21.66;88.95
76994;BME280;66749;47.406;18.822;2023-06-22T01:46:41;100582.78;;;21.65;88.57
76994;BME280;66749;47.406;18.822;2023-06-22T01:47:14;100578.16;;;21.67;88.01
76994;BME280;66749;47.406;18.822;2023-06-22T01:47:47;100582.63;;;21.67;88.24
76994;BME280;66749;47.406;18.822;2023-06-22T01:48:19;100581.78;;;21.66;87.96
76994;BME280;66749;47.406;18.822;2023-06-22T01:48:52;100583.78;;;21.64;88.50
76994;BME280;66749;47.406;18.822;2023-06-22T01:49:25;100586.59;;;21.63;88.03
76994;BME280;66749;47.406;18.822;2023-06-22T01:49:57;100586.88;;;21.59;89.22
76994;BME280;66749;47.406;18.822;2023-06-22T01:50:29;100578.22;;;21.57;88.47
76994;BME280;66749;47.406;18.822;2023-06-22T01:51:02;100579.06;;;21.58;88.83
76994;BME280;66749;47.406;18.822;2023-06-22T01:51:34;100591.19;;;21.60;88.92
76994;BME280;66749;47.406;18.822;2023-06-22T01:52:07;100581.72;;;21.58;88.75
76994;BME280;66749;47.406;18.822;2023-06-22T01:52:39;100578.75;;;21.61;88.39
76994;BME280;66749;47.406;18.822;2023-06-22T01:53:10;100588.88;;;21.57;88.73
76994;BME280;66749;47.406;18.822;2023-06-22T01:53:42;100588.88;;;21.57;88.81
76994;BME280;66749;47.406;18.822;2023-06-22T01:54:14;100586.38;;;21.56;88.66
76994;BME280;66749;47.406;18.822;2023-06-22T01:54:46;100588.34;;;21.54;88.26
76994;BME280;66749;47.406;18.822;2023-06-22T01:55:18;100586.22;;;21.57;88.11
76994;BME280;66749;47.406;18.822;2023-06-22T01:55:50;100581.88;;;21.56;88.48
76994;BME280;66749;47.406;18.822;2023-06-22T01:56:22;100585.53;;;21.55;88.40
76994;BME280;66749;47.406;18.822;2023-06-22T01:56:54;100591.69;;;21.56;88.24
76994;BME280;66749;47.406;18.822;2023-06-22T01:57:29;100588.03;;;21.57;87.97
76994;BME280;66749;47.406;18.822;2023-06-22T01:58:01;100583.88;;;21.54;89.03
76994;BME280;66749;47.406;18.822;2023-06-22T01:58:37;100590.00;;;21.55;88.51
76994;BME280;66749;47.406;18.822;2023-06-22T01:59:27;100593.66;;;21.54;88.39
76994;BME280;66749;47.406;18.822;2023-06-22T02:00:02;100590.00;;;21.55;88.55
76994;BME280;66749;47.406;18.822;2023-06-22T02:00:37;100590.00;;;21.55;88.23
76994;BME280;66749;47.406;18.822;2023-06-22T02:01:12;100592.78;;;21.53;89.11
76994;BME280;66749;47.406;18.822;2023-06-22T02:01:57;100590.28;;;21.52;88.88
76994;BME280;66749;47.406;18.822;2023-06-22T02:02:39;100598.41;;;21.50;88.85
76994;BME280;66749;47.406;18.822;2023-06-22T02:03:19;100594.09;;;21.49;89.11
76994;BME280;66749;47.406;18.822;2023-06-22T02:04:03;100595.75;;;21.50;89.17
76994;BME280;66749;47.406;18.822;2023-06-22T02:04:56;100600.41;;;21.48;89.09
76994;BME280;66749;47.406;18.822;2023-06-22T02:05:35;100594.78;;;21.51;89.14
76994;BME280;66749;47.406;18.822;2023-06-22T02:06:13;100595.91;;;21.49;89.70
76994;BME280;66749;47.406;18.822;2023-06-22T02:06:47;100587.97;;;21.49;88.71
76994;BME280;66749;47.406;18.822;2023-06-22T02:07:23;100587.97;;;21.49;88.51
76994;BME280;66749;47.406;18.822;2023-06-22T02:08:08;100588.41;;;21.44;88.47
76994;BME280;66749;47.406;18.822;2023-06-22T02:08:46;100589.69;;;21.40;88.93
76994;BME280;66749;47.406;18.822;2023-06-22T02:09:20;100588.16;;;21.38;89.01
76994;BME280;66749;47.406;18.822;2023-06-22T02:09:55;100591.81;;;21.37;89.16
76994;BME280;66749;47.406;18.822;2023-06-22T02:10:29;100590.97;;;21.36;88.93
76994;BME280;66749;47.406;18.822;2023-06-22T02:11:03;100591.44;;;21.31;89.64
76994;BME280;66749;47.406;18.822;2023-06-22T02:11:38;100592.41;;;21.30;89.73
76994;BME280;66749;47.406;18.822;2023-06-22T02:12:13;100588.25;;;21.28;89.67
76994;BME280;66749;47.406;18.822;2023-06-22T02:12:50;100590.59;;;21.31;89.65
76994;BME280;66749;47.406;18.822;2023-06-22T02:13:24;100586.25;;;21.30;88.79
76994;BME280;66749;47.406;18.822;2023-06-22T02:13:57;100582.78;;;21.29;89.74
76994;BME280;66749;47.406;18.822;2023-06-22T02:14:30;100588.47;;;21.35;89.09
76994;BME280;66749;47.406;18.822;2023-06-22T02:15:03;100592.78;;;21.36;88.61
76994;BME280;66749;47.406;18.822;2023-06-22T02:15:36;100578.84;;;21.33;89.25
76994;BME280;66749;47.406;18.822;2023-06-22T02:16:13;100583.31;;;21.33;88.87
76994;BME280;66749;47.406;18.822;2023-06-22T02:16:46;100588.47;;;21.35;89.19
76994;BME280;66749;47.406;18.822;2023-06-22T02:17:18;100588.47;;;21.35;88.87
76994;BME280;66749;47.406;18.822;2023-06-22T02:17:50;100589.31;;;21.35;89.23
76994;BME280;66749;47.406;18.822;2023-06-22T02:18:22;100594.63;;;21.35;89.86
76994;BME280;66749;47.406;18.822;2023-06-22T02:18:54;100592.13;;;21.33;89.85
76994;BME280;66749;47.406;18.822;2023-06-22T02:19:27;100592.28;;;21.32;89.18
76994;BME280;66749;47.406;18.822;2023-06-22T02:19:59;100600.91;;;21.34;88.92
76994;BME280;66749;47.406;18.822;2023-06-22T02:20:32;100590.97;;;21.36;88.88
76994;BME280;66749;47.406;18.822;2023-06-22T02:21:07;100594.47;;;21.37;89.61
76994;BME280;66749;47.406;18.822;2023-06-22T02:21:39;100595.44;;;21.36;88.71
76994;BME280;66749;47.406;18.822;2023-06-22T02:22:11;100596.28;;;21.36;88.79
76994;BME280;66749;47.406;18.822;2023-06-22T02:22:44;100593.63;;;21.36;88.59
76994;BME280;66749;47.406;18.822;2023-06-22T02:23:16;100603.25;;;21.37;88.39
76994;BME280;66749;47.406;18.822;2023-06-22T02:23:48;100605.91;;;21.37;88.42
76994;BME280;66749;47.406;18.822;2023-06-22T02:24:19;100605.25;;;21.35;88.90
76994;BME280;66749;47.406;18.822;2023-06-22T02:24:56;100601.06;;;21.32;89.37
76994;BME280;66749;47.406;18.822;2023-06-22T02:25:27;100612.81;;;21.30;89.12
76994;BME280;66749;47.406;18.822;2023-06-22T02:25:59;100603.84;;;21.31;89.44
76994;BME280;66749;47.406;18.822;2023-06-22T02:26:32;100619.13;;;21.29;89.36
76994;BME280;66749;47.406;18.822;2023-06-22T02:27:04;100613.97;;;21.27;89.42
76994;BME280;66749;47.406;18.822;2023-06-22T02:27:38;100616.19;;;21.22;89.45
76994;BME280;66749;47.406;18.822;2023-06-22T02:28:13;100613.00;;;21.19;89.28
76994;BME280;66749;47.406;18.822;2023-06-22T02:28:45;100616.66;;;21.18;89.56
76994;BME280;66749;47.406;18.822;2023-06-22T02:29:17;100616.25;;;21.13;88.21
76994;BME280;66749;47.406;18.822;2023-06-22T02:31:07;100607.94;;;20.98;89.13
76994;BME280;66749;47.406;18.822;2023-06-22T02:31:39;100615.91;;;20.98;88.89
76994;BME280;66749;47.406;18.822;2023-06-22T02:32:11;100618.28;;;21.01;88.81
76994;BME280;66749;47.406;18.822;2023-06-22T02:32:43;100617.56;;;20.99;89.21
76994;BME280;66749;47.406;18.822;2023-06-22T02:33:15;100617.72;;;20.97;89.55
76994;BME280;66749;47.406;18.822;2023-06-22T02:33:47;100621.22;;;20.98;89.54
76994;BME280;66749;47.406;18.822;2023-06-22T02:34:20;100616.59;;;21.00;89.20
76994;BME280;66749;47.406;18.822;2023-06-22T02:34:52;100616.22;;;20.95;89.77
76994;BME280;66749;47.406;18.822;2023-06-22T02:35:28;100616.22;;;20.95;89.65
76994;BME280;66749;47.406;18.822;2023-06-22T02:36:04;100619.56;;;20.97;89.09
76994;BME280;66749;47.406;18.822;2023-06-22T02:36:36;100620.53;;;20.96;89.22
76994;BME280;66749;47.406;18.822;2023-06-22T02:37:08;100618.03;;;20.94;90.06
76994;BME280;66749;47.406;18.822;2023-06-22T02:37:42;100623.19;;;20.96;89.29
76994;BME280;66749;47.406;18.822;2023-06-22T02:38:14;100628.66;;;20.94;90.08
76994;BME280;66749;47.406;18.822;2023-06-22T02:38:46;100625.59;;;20.89;89.49
76994;BME280;66749;47.406;18.822;2023-06-22T02:39:21;100626.28;;;20.91;89.24
76994;BME280;66749;47.406;18.822;2023-06-22T02:39:54;100630.47;;;20.94;89.84
76994;BME280;66749;47.406;18.822;2023-06-22T02:40:26;100635.63;;;20.95;90.03
76994;BME280;66749;47.406;18.822;2023-06-22T02:40:58;100632.41;;;20.92;90.16
76994;BME280;66749;47.406;18.822;2023-06-22T02:41:30;100629.75;;;20.92;90.17
76994;BME280;66749;47.406;18.822;2023-06-22T02:42:02;100629.63;;;20.93;89.39
76994;BME280;66749;47.406;18.822;2023-06-22T02:42:35;100632.13;;;20.95;89.21
76994;BME280;66749;47.406;18.822;2023-06-22T02:43:07;100634.78;;;20.95;89.69
76994;BME280;66749;47.406;18.822;2023-06-22T02:43:39;100635.78;;;20.94;89.40
76994;BME280;66749;47.406;18.822;2023-06-22T02:44:10;100637.44;;;20.95;88.91
76994;BME280;66749;47.406;18.822;2023-06-22T02:44:42;100646.25;;;20.95;88.99
76994;BME280;66749;47.406;18.822;2023-06-22T02:45:14;100632.81;;;20.97;89.00
76994;BME280;66749;47.406;18.822;2023-06-22T02:45:46;100632.97;;;20.95;90.03
76994;BME280;66749;47.406;18.822;2023-06-22T02:46:18;100630.31;;;20.95;88.87
76994;BME280;66749;47.406;18.822;2023-06-22T02:46:50;100639.53;;;20.91;89.73
76994;BME280;66749;47.406;18.822;2023-06-22T02:47:22;100631.59;;;20.91;89.33
76994;BME280;66749;47.406;18.822;2023-06-22T02:47:55;100626.97;;;20.93;89.00
76994;BME280;66749;47.406;18.822;2023-06-22T02:48:27;100631.31;;;20.94;89.32
76994;BME280;66749;47.406;18.822;2023-06-22T02:48:59;100632.00;;;20.96;89.10
76994;BME280;66749;47.406;18.822;2023-06-22T02:49:30;100627.50;;;20.97;89.37
76994;BME280;66749;47.406;18.822;2023-06-22T02:50:03;100630.31;;;20.95;89.09
76994;BME280;66749;47.406;18.822;2023-06-22T02:50:35;100626.69;;;20.96;89.65
76994;BME280;66749;47.406;18.822;2023-06-22T02:51:07;100625.84;;;20.96;89.60
76994;BME280;66749;47.406;18.822;2023-06-22T02:51:45;100626.97;;;20.93;89.52
76994;BME280;66749;47.406;18.822;2023-06-22T02:52:16;100629.50;;;20.95;89.86
76994;BME280;66749;47.406;18.822;2023-06-22T02:52:48;100630.31;;;20.95;89.60
76994;BME280;66749;47.406;18.822;2023-06-22T02:53:20;100626.97;;;20.93;89.77
76994;BME280;66749;47.406;18.822;2023-06-22T02:53:52;100633.81;;;20.96;89.39
76994;BME280;66749;47.406;18.822;2023-06-22T02:54:29;100632.00;;;20.96;88.78
76994;BME280;66749;47.406;18.822;2023-06-22T02:55:01;100627.81;;;20.94;89.14
76994;BME280;66749;47.406;18.822;2023-06-22T02:55:33;100630.47;;;20.94;89.38
76994;BME280;66749;47.406;18.822;2023-06-22T02:56:04;100632.13;;;20.95;89.15
76994;BME280;66749;47.406;18.822;2023-06-22T02:56:37;100632.28;;;20.93;88.99
76994;BME280;66749;47.406;18.822;2023-06-22T02:57:08;100643.59;;;20.95;89.38
76994;BME280;66749;47.406;18.822;2023-06-22T02:57:45;100634.78;;;20.95;88.97
76994;BME280;66749;47.406;18.822;2023-06-22T02:58:18;100635.63;;;20.95;89.77
76994;BME280;66749;47.406;18.822;2023-06-22T02:58:50;100632.00;;;20.96;88.79
76994;BME280;66749;47.406;18.822;2023-06-22T02:59:22;100631.44;;;20.93;89.41
76994;BME280;66749;47.406;18.822;2023-06-22T02:59:55;100626.97;;;20.93;89.56
76994;BME280;66749;47.406;18.822;2023-06-22T03:00:27;100627.94;;;20.92;88.84
76994;BME280;66749;47.406;18.822;2023-06-22T03:01:02;100631.88;;;20.88;88.84
76994;BME280;66749;47.406;18.822;2023-06-22T03:01:37;100622.25;;;20.87;89.01
76994;BME280;66749;47.406;18.822;2023-06-22T03:02:12;100632.16;;;20.85;89.78
76994;BME280;66749;47.406;18.822;2023-06-22T03:02:47;100632.88;;;20.87;88.87